Oliverea, New York
Current Conditions -  °F | °C
As of 2:35 AM on Saturday 29 Nov 2014 (Local Time) from KMSV Reporting Station
Overcast Overcast  
Wind Chill: 14°   Ceiling: 12000
Heat Index: 14°   Visibility: 10mi
Dew Point: 10°   Wind: 0mph
Humidity: 86%   Direction: NA
Pressure: 30.21"   Gusts: NA
Location:  42.1356°N, 74.4393°W
Report Text: KMSV 290735Z AUTO 00000KT 10SM OVC120 M10/M12 A3021 RMK AO1
Loading
Personal Weather Stations






























Interactive Weather Map New forecast layout! Learn more

10-Day Weather Forecast

Advertisements
Track Severe Weather on mobile